createdAt,value
2018-04-07T00:02:17.780Z,40.30
2018-04-07T00:04:46.044Z,39.92
2018-04-07T00:07:14.324Z,40.44
2018-04-07T00:09:42.608Z,40.45
2018-04-07T00:12:10.880Z,40.29
2018-04-07T00:14:39.151Z,40.61
2018-04-07T00:17:07.420Z,40.47
2018-04-07T00:19:35.695Z,40.40
2018-04-07T00:22:03.960Z,40.90
2018-04-07T00:24:32.243Z,40.52
2018-04-07T00:27:00.511Z,40.56
2018-04-07T00:29:28.793Z,40.92
2018-04-07T00:31:57.060Z,41.08
2018-04-07T00:34:25.331Z,40.76
2018-04-07T00:36:53.600Z,40.63
2018-04-07T00:39:21.872Z,41.29
2018-04-07T00:41:50.144Z,41.18
2018-04-07T00:44:18.419Z,41.51
2018-04-07T00:46:46.688Z,41.83
2018-04-07T00:49:14.955Z,41.80
2018-04-07T00:51:43.232Z,41.94
2018-04-07T00:54:12.185Z,42.09
2018-04-07T00:56:40.464Z,42.05
2018-04-07T00:59:08.731Z,42.07
2018-04-07T01:01:37.013Z,42.25
2018-04-07T01:04:05.287Z,42.30
2018-04-07T01:06:33.555Z,42.46
2018-04-07T01:09:01.823Z,42.66
2018-04-07T01:11:30.088Z,42.39
2018-04-07T01:13:58.367Z,42.80
2018-04-07T01:16:26.636Z,42.75
2018-04-07T01:18:55.148Z,43.11
2018-04-07T01:21:23.408Z,43.76
2018-04-07T01:23:51.691Z,44.33
2018-04-07T01:26:19.957Z,44.56
2018-04-07T01:28:48.228Z,44.85
2018-04-07T01:31:16.506Z,45.12
2018-04-07T01:33:44.771Z,45.31
2018-04-07T01:36:13.055Z,45.68
2018-04-07T01:38:41.319Z,45.34
2018-04-07T01:41:09.607Z,45.54
2018-04-07T01:43:37.869Z,45.40
2018-04-07T01:46:06.427Z,45.62
2018-04-07T01:48:34.683Z,45.87
2018-04-07T01:51:02.959Z,45.68
2018-04-07T01:53:31.228Z,45.69
2018-04-07T01:55:59.500Z,45.57
2018-04-07T01:58:27.778Z,45.43
2018-04-07T02:00:56.064Z,45.47
2018-04-07T02:03:24.348Z,45.74
2018-04-07T02:05:52.625Z,45.51
2018-04-07T02:08:20.899Z,45.35
2018-04-07T02:10:49.168Z,45.55
2018-04-07T02:13:17.432Z,45.60
2018-04-07T02:15:45.711Z,45.42
2018-04-07T02:18:13.980Z,45.41
2018-04-07T02:20:42.256Z,45.36
2018-04-07T02:23:10.528Z,45.64
2018-04-07T02:25:38.804Z,45.58
2018-04-07T02:28:07.075Z,46.05
2018-04-07T02:30:35.359Z,46.10
2018-04-07T02:33:03.628Z,46.13
2018-04-07T02:35:31.900Z,46.48
2018-04-07T02:38:00.188Z,46.74
2018-04-07T02:40:28.456Z,46.57
2018-04-07T02:42:56.728Z,46.84
2018-04-07T02:45:24.996Z,46.69
2018-04-07T02:47:53.272Z,46.78
2018-04-07T02:50:21.539Z,46.99
2018-04-07T02:52:50.086Z,46.95
2018-04-07T02:55:18.347Z,46.90
2018-04-07T02:57:46.626Z,47.08
2018-04-07T03:00:14.913Z,47.14
2018-04-07T03:02:43.187Z,47.44
2018-04-07T03:05:11.464Z,47.61
2018-04-07T03:07:39.748Z,47.68
2018-04-07T03:10:08.023Z,47.64
2018-04-07T03:12:36.287Z,47.69
2018-04-07T03:15:04.571Z,47.79
2018-04-07T03:17:32.844Z,47.99
2018-04-07T03:20:01.115Z,47.44
2018-04-07T03:22:29.389Z,47.33
2018-04-07T03:24:57.656Z,46.77
2018-04-07T03:27:25.927Z,46.44
2018-04-07T03:29:54.195Z,46.37
2018-04-07T03:32:22.496Z,46.39
2018-04-07T03:34:50.768Z,46.38
2018-04-07T03:37:19.056Z,46.10
2018-04-07T03:39:47.330Z,46.04
2018-04-07T03:42:15.596Z,45.91
2018-04-07T03:44:43.871Z,45.77
2018-04-07T03:47:12.139Z,46.07
2018-04-07T03:49:40.423Z,46.05
2018-04-07T03:52:08.691Z,45.85
2018-04-07T03:54:36.989Z,46.14
2018-04-07T03:57:05.255Z,45.75
2018-04-07T03:59:33.527Z,46.39
2018-04-07T04:02:01.808Z,46.49
2018-04-07T04:04:30.075Z,46.32
2018-04-07T04:06:58.351Z,46.46
2018-04-07T04:09:26.615Z,46.42
2018-04-07T04:11:54.904Z,46.44
2018-04-07T04:14:23.175Z,46.41
2018-04-07T04:16:51.438Z,46.36
2018-04-07T04:19:19.719Z,46.33
2018-04-07T04:21:47.992Z,46.99
2018-04-07T04:24:16.271Z,46.75
2018-04-07T04:26:44.540Z,46.34
2018-04-07T04:29:12.817Z,46.33
2018-04-07T04:31:41.079Z,47.09
2018-04-07T04:34:09.381Z,46.44
2018-04-07T04:36:37.646Z,46.45
2018-04-07T04:39:05.956Z,46.80
2018-04-07T04:41:34.448Z,46.81
2018-04-07T04:44:02.717Z,46.65
2018-04-07T04:46:30.996Z,46.93
2018-04-07T04:48:59.263Z,47.34
2018-04-07T04:51:27.543Z,46.93
2018-04-07T04:53:55.817Z,47.43
2018-04-07T04:56:24.104Z,47.66
2018-04-07T04:58:52.380Z,47.45
2018-04-07T05:01:20.647Z,48.05
2018-04-07T05:03:48.927Z,47.53
2018-04-07T05:06:17.195Z,47.34
2018-04-07T05:08:45.475Z,47.50
2018-04-07T05:11:13.756Z,47.47
2018-04-07T05:13:42.052Z,48.11
2018-04-07T05:16:10.312Z,47.53
2018-04-07T05:18:38.600Z,47.75
2018-04-07T05:21:06.876Z,47.68
2018-04-07T05:23:35.147Z,47.67
2018-04-07T05:26:03.427Z,47.97
2018-04-07T05:28:31.707Z,47.83
2018-04-07T05:31:00.008Z,47.43
2018-04-07T05:33:28.279Z,47.38
2018-04-07T05:35:56.561Z,47.18
2018-04-07T05:38:24.831Z,47.29
2018-04-07T05:40:53.374Z,46.96
2018-04-07T05:43:21.651Z,46.91
2018-04-07T05:45:49.968Z,46.94
2018-04-07T05:48:18.216Z,46.71
2018-04-07T05:50:46.488Z,46.88
2018-04-07T05:53:14.781Z,46.90
2018-04-07T05:55:43.065Z,46.79
2018-04-07T05:58:11.339Z,46.67
2018-04-07T06:00:39.620Z,46.23
2018-04-07T06:03:07.899Z,46.20
2018-04-07T06:05:36.184Z,46.38
2018-04-07T06:08:04.455Z,46.53
2018-04-07T06:10:32.739Z,46.74
2018-04-07T06:13:01.020Z,46.25
2018-04-07T06:15:29.303Z,46.32
2018-04-07T06:17:57.579Z,45.87
2018-04-07T06:20:25.851Z,45.95
2018-04-07T06:22:54.159Z,46.08
2018-04-07T06:25:22.408Z,45.36
2018-04-07T06:27:50.951Z,45.43
2018-04-07T06:30:19.219Z,45.51
2018-04-07T06:32:47.492Z,45.29
2018-04-07T06:35:15.779Z,45.24
2018-04-07T06:37:44.062Z,45.36
2018-04-07T06:40:12.338Z,45.07
2018-04-07T06:42:40.607Z,44.75
2018-04-07T06:45:09.152Z,44.04
2018-04-07T06:47:37.442Z,43.92
2018-04-07T06:50:05.699Z,43.37
2018-04-07T06:52:33.992Z,42.84
2018-04-07T06:55:02.297Z,42.43
2018-04-07T06:57:30.555Z,41.44
2018-04-07T06:59:58.828Z,41.51
2018-04-07T07:02:27.358Z,41.85
2018-04-07T07:04:55.635Z,40.62
2018-04-07T07:07:23.907Z,40.33
2018-04-07T07:09:52.191Z,39.95
2018-04-07T07:12:20.471Z,39.63
2018-04-07T07:14:48.752Z,39.12
2018-04-07T07:17:17.083Z,38.20
2018-04-07T07:19:45.385Z,39.71
2018-04-07T07:22:13.672Z,39.09
2018-04-07T07:24:41.960Z,39.13
2018-04-07T07:27:10.247Z,39.45
2018-04-07T07:29:38.567Z,38.52
2018-04-07T07:32:06.802Z,39.06
2018-04-07T07:34:35.126Z,39.04
2018-04-07T07:37:03.363Z,38.15
2018-04-07T07:39:31.645Z,37.99
2018-04-07T07:41:59.962Z,38.14
2018-04-07T07:44:28.231Z,38.18
2018-04-07T07:46:56.520Z,37.87
2018-04-07T07:49:24.811Z,38.45
2018-04-07T07:51:53.087Z,38.16
2018-04-07T07:54:21.376Z,37.84
2018-04-07T07:56:49.644Z,37.97
2018-04-07T07:59:17.931Z,38.40
2018-04-07T08:01:46.927Z,38.80
2018-04-07T08:04:15.203Z,37.96
2018-04-07T08:06:43.488Z,38.02
2018-04-07T08:09:11.763Z,38.26
2018-04-07T08:11:40.046Z,37.74
2018-04-07T08:14:08.311Z,36.90
2018-04-07T08:16:36.640Z,37.19
2018-04-07T08:19:04.908Z,36.97
2018-04-07T08:21:33.181Z,37.14
2018-04-07T08:24:01.465Z,37.01
2018-04-07T08:26:29.740Z,36.78
2018-04-07T08:28:58.019Z,36.63
2018-04-07T08:31:26.291Z,36.35
2018-04-07T08:33:54.582Z,35.40
2018-04-07T08:36:22.862Z,35.36
2018-04-07T08:38:51.143Z,36.00
2018-04-07T08:41:19.423Z,35.78
2018-04-07T08:43:47.696Z,35.37
2018-04-07T08:46:15.984Z,34.51
2018-04-07T08:48:44.258Z,34.64
2018-04-07T08:51:12.543Z,34.54
2018-04-07T08:53:40.815Z,33.66
2018-04-07T08:56:09.087Z,32.49
2018-04-07T08:58:37.372Z,32.61
2018-04-07T09:01:05.644Z,33.60
2018-04-07T09:03:33.938Z,32.06
2018-04-07T09:06:02.203Z,33.48
2018-04-07T09:08:30.499Z,32.61
2018-04-07T09:10:58.773Z,33.76
2018-04-07T09:13:27.042Z,32.98
2018-04-07T09:15:55.327Z,32.52
2018-04-07T09:18:23.607Z,33.65
2018-04-07T09:20:51.885Z,33.37
2018-04-07T09:23:20.159Z,32.84
2018-04-07T09:25:48.705Z,33.20
2018-04-07T09:28:16.978Z,33.28
2018-04-07T09:30:45.255Z,32.70
2018-04-07T09:33:13.547Z,32.73
2018-04-07T09:35:41.824Z,32.46
2018-04-07T09:38:10.103Z,32.52
2018-04-07T09:40:38.374Z,32.59
2018-04-07T09:43:06.915Z,31.95
2018-04-07T09:45:35.198Z,32.12
2018-04-07T09:48:03.468Z,32.25
2018-04-07T09:53:28.543Z,31.71
2018-04-07T09:55:56.835Z,32.75
2018-04-07T09:58:25.112Z,32.51
2018-04-07T10:00:53.380Z,32.28
2018-04-07T10:03:22.315Z,32.98
2018-04-07T10:05:50.591Z,32.26
2018-04-07T10:08:18.884Z,32.41
2018-04-07T10:10:47.165Z,32.05
2018-04-07T10:13:15.437Z,31.18
2018-04-07T10:15:43.725Z,32.13
2018-04-07T10:18:11.994Z,31.70
2018-04-07T10:20:40.279Z,31.85
2018-04-07T10:23:08.559Z,31.80
2018-04-07T10:25:36.835Z,32.08
2018-04-07T10:28:05.120Z,32.31
2018-04-07T10:30:33.391Z,32.42
2018-04-07T10:33:01.684Z,32.06
2018-04-07T10:35:29.965Z,31.56
2018-04-07T10:37:58.235Z,32.58
2018-04-07T10:40:26.517Z,32.29
2018-04-07T10:42:54.796Z,32.23
2018-04-07T10:45:23.090Z,32.11
2018-04-07T10:47:51.367Z,31.79
2018-04-07T10:50:19.654Z,31.59
2018-04-07T10:52:47.960Z,30.61
2018-04-07T10:55:16.227Z,30.39
2018-04-07T10:57:44.544Z,30.29
2018-04-07T11:00:12.820Z,30.93
2018-04-07T11:02:41.107Z,30.01
2018-04-07T11:05:09.392Z,30.66
2018-04-07T11:07:37.666Z,31.05
2018-04-07T11:10:05.959Z,31.07
2018-04-07T11:12:34.251Z,30.27
2018-04-07T11:15:02.537Z,30.15
2018-04-07T11:17:30.823Z,30.65
2018-04-07T11:19:59.093Z,30.28
2018-04-07T11:22:27.388Z,29.99
2018-04-07T11:24:55.663Z,29.76
2018-04-07T11:27:23.944Z,30.08
2018-04-07T11:29:52.238Z,30.22
2018-04-07T11:32:20.499Z,29.58
2018-04-07T11:34:48.791Z,29.07
2018-04-07T11:37:17.079Z,29.41
2018-04-07T11:39:45.347Z,29.61
2018-04-07T11:42:13.631Z,29.16
2018-04-07T11:44:41.916Z,29.27
2018-04-07T11:47:10.214Z,28.82
2018-04-07T11:49:38.495Z,29.30
2018-04-07T11:52:06.804Z,29.07
2018-04-07T11:54:35.092Z,29.60
2018-04-07T11:57:03.363Z,29.07
2018-04-07T11:59:31.651Z,28.90
2018-04-07T12:01:59.932Z,28.59
2018-04-07T12:04:28.212Z,28.74
2018-04-07T12:06:56.500Z,28.69
2018-04-07T12:09:24.779Z,28.44
2018-04-07T12:11:53.091Z,28.19
2018-04-07T12:14:21.364Z,28.37
2018-04-07T12:16:49.648Z,28.53
2018-04-07T12:19:18.178Z,28.09
2018-04-07T12:21:46.451Z,28.05
2018-04-07T12:24:14.755Z,28.15
2018-04-07T12:26:43.032Z,28.00
2018-04-07T12:29:11.303Z,27.97
2018-04-07T12:31:39.594Z,27.73
2018-04-07T12:34:07.870Z,27.81
2018-04-07T12:36:36.152Z,27.84
2018-04-07T12:39:04.452Z,27.07
2018-04-07T12:41:32.728Z,27.85
2018-04-07T12:44:01.016Z,27.47
2018-04-07T12:46:29.291Z,27.32
2018-04-07T12:48:57.583Z,27.47
2018-04-07T12:51:25.852Z,26.97
2018-04-07T12:53:54.123Z,27.02
2018-04-07T12:56:22.411Z,26.93
2018-04-07T12:58:50.691Z,26.97
2018-04-07T13:01:19.027Z,26.57
2018-04-07T13:03:47.439Z,26.81
2018-04-07T13:06:15.715Z,25.77
2018-04-07T13:08:44.004Z,25.90
2018-04-07T13:11:12.281Z,25.84
2018-04-07T13:13:40.588Z,25.08
2018-04-07T13:16:08.908Z,25.59
2018-04-07T13:18:37.189Z,25.88
2018-04-07T13:21:05.468Z,25.81
2018-04-07T13:23:33.743Z,25.27
2018-04-07T13:26:02.056Z,25.33
2018-04-07T13:28:30.320Z,25.18
2018-04-07T13:30:58.595Z,24.50
2018-04-07T13:33:38.369Z,24.23
2018-04-07T13:35:55.151Z,24.39
2018-04-07T13:38:23.431Z,24.21
2018-04-07T13:40:51.727Z,24.18
2018-04-07T13:43:20.003Z,24.45
2018-04-07T13:45:48.279Z,23.69
2018-04-07T13:48:16.559Z,24.00
2018-04-07T13:50:44.855Z,24.17
2018-04-07T13:53:13.132Z,23.75
2018-04-07T13:55:41.417Z,23.55
2018-04-07T13:58:09.707Z,23.62
2018-04-07T14:00:37.984Z,24.05
2018-04-07T14:03:06.273Z,23.61
2018-04-07T14:05:34.552Z,23.89
2018-04-07T14:08:02.824Z,23.79
2018-04-07T14:10:31.111Z,23.63
2018-04-07T14:12:59.388Z,23.82
2018-04-07T14:15:27.684Z,23.85
2018-04-07T14:17:56.177Z,23.67
2018-04-07T14:20:24.448Z,23.58
2018-04-07T14:22:52.735Z,23.83
2018-04-07T14:25:21.007Z,23.90
2018-04-07T14:27:49.303Z,24.01
2018-04-07T14:30:17.579Z,23.80
2018-04-07T14:32:45.859Z,24.59
2018-04-07T14:35:14.143Z,24.27
2018-04-07T14:37:42.420Z,24.33
2018-04-07T14:40:10.719Z,24.54
2018-04-07T14:42:38.996Z,24.65
2018-04-07T14:45:07.275Z,24.57
2018-04-07T14:47:35.555Z,24.88
2018-04-07T14:50:03.831Z,24.46
2018-04-07T14:52:32.133Z,24.73
2018-04-07T14:55:00.414Z,24.58
2018-04-07T14:57:28.679Z,25.03
2018-04-07T14:59:57.800Z,25.10
2018-04-07T15:02:26.071Z,25.30
2018-04-07T15:04:54.375Z,25.05
2018-04-07T15:07:22.648Z,24.94
2018-04-07T15:09:50.964Z,25.52
2018-04-07T15:12:19.252Z,25.06
2018-04-07T15:14:47.531Z,25.61
2018-04-07T15:17:15.827Z,24.96
2018-04-07T15:19:44.119Z,25.26
2018-04-07T15:22:12.380Z,25.33
2018-04-07T15:24:40.672Z,25.39
2018-04-07T15:27:08.947Z,24.71
2018-04-07T15:29:37.240Z,24.98
2018-04-07T15:32:05.512Z,25.36
2018-04-07T15:34:33.780Z,25.37
2018-04-07T15:37:02.063Z,25.54
2018-04-07T15:39:30.363Z,25.81
2018-04-07T15:41:58.653Z,25.85
2018-04-07T15:44:26.930Z,25.65
2018-04-07T15:46:55.205Z,25.46
2018-04-07T15:49:23.484Z,25.42
2018-04-07T15:51:51.759Z,25.28
2018-04-07T15:54:20.057Z,25.54
2018-04-07T15:56:48.334Z,25.56
2018-04-07T15:59:16.690Z,25.69
2018-04-07T16:01:44.931Z,25.63
2018-04-07T16:04:13.208Z,25.88
2018-04-07T16:06:41.505Z,25.95
2018-04-07T16:09:09.787Z,25.85
2018-04-07T16:11:38.063Z,25.91
2018-04-07T16:14:06.344Z,26.09
2018-04-07T16:16:34.620Z,25.98
2018-04-07T16:19:02.914Z,25.79
2018-04-07T16:21:31.182Z,26.23
2018-04-07T16:23:59.459Z,26.02
2018-04-07T16:26:27.739Z,26.17
2018-04-07T16:28:56.007Z,26.26
2018-04-07T16:31:24.299Z,26.28
2018-04-07T16:33:52.563Z,26.48
2018-04-07T16:36:20.839Z,26.33
2018-04-07T16:38:49.112Z,26.33
2018-04-07T16:41:17.391Z,27.13
2018-04-07T16:43:45.687Z,26.78
2018-04-07T16:46:13.951Z,26.76
2018-04-07T16:48:42.223Z,26.68
2018-04-07T16:51:10.503Z,26.65
2018-04-07T16:53:38.771Z,26.67
2018-04-07T16:56:07.049Z,26.96
2018-04-07T16:58:35.329Z,27.04
2018-04-07T17:01:03.599Z,26.84
2018-04-07T17:03:31.883Z,27.22
2018-04-07T17:06:00.156Z,27.52
2018-04-07T17:08:28.435Z,27.39
2018-04-07T17:10:56.707Z,27.82
2018-04-07T17:13:24.971Z,27.52
2018-04-07T17:15:53.315Z,27.71
2018-04-07T17:18:21.595Z,28.22
2018-04-07T17:20:49.863Z,27.97
2018-04-07T17:23:18.144Z,28.10
2018-04-07T17:25:46.419Z,28.16
2018-04-07T17:28:14.716Z,28.42
2018-04-07T17:30:42.986Z,28.42
2018-04-07T17:33:11.260Z,28.55
2018-04-07T17:35:39.543Z,28.49
2018-04-07T17:38:07.817Z,28.81
2018-04-07T17:40:36.100Z,28.62
2018-04-07T17:43:04.367Z,29.05
2018-04-07T17:45:32.666Z,29.61
2018-04-07T17:48:00.955Z,29.64
2018-04-07T17:50:29.247Z,29.81
2018-04-07T17:52:57.548Z,29.85
2018-04-07T17:55:25.820Z,29.93
2018-04-07T17:57:54.097Z,30.25
2018-04-07T18:00:22.384Z,30.65
2018-04-07T18:02:50.651Z,30.82
2018-04-07T18:05:18.951Z,31.14
2018-04-07T18:07:47.231Z,31.50
2018-04-07T18:10:15.496Z,31.52
2018-04-07T18:12:43.788Z,31.89
2018-04-07T18:15:12.076Z,32.25
2018-04-07T18:17:40.360Z,32.62
2018-04-07T18:20:08.632Z,32.47
2018-04-07T18:22:36.901Z,32.70
2018-04-07T18:25:05.208Z,32.76
2018-04-07T18:27:33.446Z,32.86
2018-04-07T18:30:01.746Z,33.07
2018-04-07T18:32:30.012Z,33.46
2018-04-07T18:34:58.287Z,33.58
2018-04-07T18:37:26.576Z,33.46
2018-04-07T18:39:54.852Z,33.83
2018-04-07T18:42:23.131Z,33.96
2018-04-07T18:44:51.401Z,34.47
2018-04-07T18:47:19.672Z,34.43
2018-04-07T18:49:47.953Z,34.81
2018-04-07T18:52:16.220Z,34.79
2018-04-07T18:54:44.505Z,35.06
2018-04-07T18:57:12.771Z,35.03
2018-04-07T18:59:41.052Z,35.16
2018-04-07T19:02:09.352Z,34.86
2018-04-07T19:04:37.631Z,34.87
2018-04-07T19:07:05.929Z,35.07
2018-04-07T19:09:34.191Z,35.16
2018-04-07T19:12:02.464Z,35.54
2018-04-07T19:14:30.747Z,36.01
2018-04-07T19:16:59.015Z,35.87
2018-04-07T19:19:27.307Z,36.14
2018-04-07T19:21:55.896Z,36.53
2018-04-07T19:24:24.163Z,36.17
2018-04-07T19:26:52.449Z,36.36
2018-04-07T19:29:20.730Z,36.82
2018-04-07T19:31:49.016Z,36.50
2018-04-07T19:34:17.287Z,36.81
2018-04-07T19:36:45.560Z,36.80
2018-04-07T19:39:13.843Z,36.74
2018-04-07T19:41:42.120Z,37.03
2018-04-07T19:44:10.413Z,37.11
2018-04-07T19:46:38.684Z,37.52
2018-04-07T19:49:06.959Z,37.81
2018-04-07T19:51:35.239Z,37.48
2018-04-07T19:54:03.525Z,38.12
2018-04-07T19:56:31.819Z,38.29
2018-04-07T19:59:00.121Z,38.18
2018-04-07T20:01:28.420Z,38.41
2018-04-07T20:03:56.701Z,38.96
2018-04-07T20:06:31.319Z,39.01
2018-04-07T20:08:59.619Z,39.28
2018-04-07T20:11:27.915Z,39.40
2018-04-07T20:13:56.191Z,39.43
2018-04-07T20:16:24.480Z,39.52
2018-04-07T20:18:52.755Z,39.96
2018-04-07T20:21:21.035Z,39.25
2018-04-07T20:23:49.320Z,39.55
2018-04-07T20:26:17.600Z,38.98
2018-04-07T20:28:45.891Z,38.89
2018-04-07T20:31:14.167Z,39.13
2018-04-07T20:33:42.439Z,38.82
2018-04-07T20:36:10.721Z,38.49
2018-04-07T20:38:38.999Z,38.48
2018-04-07T20:41:07.283Z,39.11
2018-04-07T20:43:35.561Z,39.32
2018-04-07T20:46:03.843Z,39.63
2018-04-07T20:48:32.128Z,39.23
2018-04-07T20:51:00.400Z,39.08
2018-04-07T20:53:28.707Z,39.31
2018-04-07T20:55:56.983Z,39.19
2018-04-07T20:58:25.272Z,39.40
2018-04-07T21:00:53.559Z,39.68
2018-04-07T21:03:21.823Z,39.75
2018-04-07T21:05:50.148Z,40.64
2018-04-07T21:08:18.387Z,40.94
2018-04-07T21:10:46.663Z,40.76
2018-04-07T21:13:14.968Z,41.02
2018-04-07T21:15:43.215Z,41.00
2018-04-07T21:18:11.503Z,41.42
2018-04-07T21:20:39.808Z,41.58
2018-04-07T21:23:08.068Z,41.61
2018-04-07T21:25:36.356Z,41.60
2018-04-07T21:28:04.635Z,41.20
2018-04-07T21:30:32.947Z,42.13
2018-04-07T21:33:01.227Z,42.35
2018-04-07T21:35:29.553Z,42.62
2018-04-07T21:37:57.792Z,42.31
2018-04-07T21:40:26.063Z,42.32
2018-04-07T21:42:54.367Z,42.08
2018-04-07T21:45:22.657Z,42.43
2018-04-07T21:47:50.928Z,42.47
2018-04-07T21:50:19.212Z,42.51
2018-04-07T21:52:47.487Z,43.06
2018-04-07T21:55:15.776Z,43.15
2018-04-07T21:57:44.048Z,43.79
2018-04-07T22:00:12.323Z,43.30
2018-04-07T22:02:40.606Z,43.97
2018-04-07T22:05:08.884Z,44.06
2018-04-07T22:07:37.175Z,44.41
2018-04-07T22:10:05.456Z,44.60
2018-04-07T22:12:33.727Z,44.93
2018-04-07T22:15:02.012Z,45.06
2018-04-07T22:17:30.280Z,45.41
2018-04-07T22:19:58.563Z,45.29
2018-04-07T22:22:26.839Z,45.71
2018-04-07T22:24:55.110Z,45.85
2018-04-07T22:27:23.392Z,45.76
2018-04-07T22:29:51.667Z,45.52
2018-04-07T22:32:19.965Z,45.82
2018-04-07T22:34:48.232Z,45.33
2018-04-07T22:37:16.503Z,45.33
2018-04-07T22:39:44.784Z,45.93
2018-04-07T22:42:13.059Z,45.72
2018-04-07T22:44:41.378Z,45.43
2018-04-07T22:47:09.635Z,45.71
2018-04-07T22:49:37.919Z,46.07
2018-04-07T22:52:06.196Z,46.20
2018-04-07T22:54:34.477Z,46.09
2018-04-07T22:57:02.768Z,46.51
2018-04-07T22:59:31.041Z,46.90
2018-04-07T23:01:59.315Z,47.20
2018-04-07T23:04:27.603Z,46.67
2018-04-07T23:06:55.871Z,47.21
2018-04-07T23:09:24.179Z,47.14
2018-04-07T23:11:52.507Z,47.19
2018-04-07T23:14:20.785Z,47.50
2018-04-07T23:16:49.067Z,47.87
2018-04-07T23:19:17.339Z,48.34
2018-04-07T23:21:45.964Z,48.35
2018-04-07T23:24:14.231Z,48.26
2018-04-07T23:26:42.507Z,48.17
2018-04-07T23:29:10.791Z,47.66
2018-04-07T23:31:39.063Z,47.95
2018-04-07T23:34:07.346Z,47.58
2018-04-07T23:36:35.619Z,48.01
2018-04-07T23:39:03.898Z,47.98
2018-04-07T23:41:32.186Z,47.93
2018-04-07T23:44:00.454Z,48.08
2018-04-07T23:46:28.732Z,48.25
2018-04-07T23:48:57.011Z,49.20
2018-04-07T23:51:25.283Z,49.11
2018-04-07T23:53:53.567Z,49.88
2018-04-07T23:56:21.841Z,49.21
2018-04-07T23:58:50.136Z,49.04
